sensor_id;sensor_type;location;lat;lon;timestamp;temperature;humidity
76172;DHT22;64929;51.178;4.138;2023-05-02T00:01:57;13.00;85.40
76172;DHT22;64929;51.178;4.138;2023-05-02T00:04:23;13.20;85.00
76172;DHT22;64929;51.178;4.138;2023-05-02T00:06:51;13.20;84.80
76172;DHT22;64929;51.178;4.138;2023-05-02T00:09:17;13.20;85.00
76172;DHT22;64929;51.178;4.138;2023-05-02T00:11:43;13.20;85.00
76172;DHT22;64929;51.178;4.138;2023-05-02T00:14:09;13.10;86.00
76172;DHT22;64929;51.178;4.138;2023-05-02T00:16:35;13.20;85.40
76172;DHT22;64929;51.178;4.138;2023-05-02T00:19:00;13.10;86.20
76172;DHT22;64929;51.178;4.138;2023-05-02T00:21:26;13.10;86.00
76172;DHT22;64929;51.178;4.138;2023-05-02T00:23:54;13.00;86.30
76172;DHT22;64929;51.178;4.138;2023-05-02T00:26:21;13.10;86.10
76172;DHT22;64929;51.178;4.138;2023-05-02T00:28:47;13.30;85.50
76172;DHT22;64929;51.178;4.138;2023-05-02T00:31:13;13.00;85.90
76172;DHT22;64929;51.178;4.138;2023-05-02T00:33:39;13.00;85.80
76172;DHT22;64929;51.178;4.138;2023-05-02T00:36:12;13.00;85.70
76172;DHT22;64929;51.178;4.138;2023-05-02T00:38:38;13.00;85.90
76172;DHT22;64929;51.178;4.138;2023-05-02T00:41:04;13.00;86.20
76172;DHT22;64929;51.178;4.138;2023-05-02T00:43:30;13.00;85.40
76172;DHT22;64929;51.178;4.138;2023-05-02T00:45:56;13.10;84.70
76172;DHT22;64929;51.178;4.138;2023-05-02T00:48:24;13.00;85.10
76172;DHT22;64929;51.178;4.138;2023-05-02T00:50:50;13.00;85.40
76172;DHT22;64929;51.178;4.138;2023-05-02T00:53:16;12.90;86.00
76172;DHT22;64929;51.178;4.138;2023-05-02T00:55:42;12.70;86.60
76172;DHT22;64929;51.178;4.138;2023-05-02T00:58:13;12.80;86.70
76172;DHT22;64929;51.178;4.138;2023-05-02T01:03:38;12.70;87.10
76172;DHT22;64929;51.178;4.138;2023-05-02T01:06:11;12.80;86.30
76172;DHT22;64929;51.178;4.138;2023-05-02T01:08:54;12.80;86.40
76172;DHT22;64929;51.178;4.138;2023-05-02T01:14:10;12.90;85.80
76172;DHT22;64929;51.178;4.138;2023-05-02T01:16:38;13.00;86.30
76172;DHT22;64929;51.178;4.138;2023-05-02T01:19:08;12.70;87.80
76172;DHT22;64929;51.178;4.138;2023-05-02T01:21:38;12.70;88.30
76172;DHT22;64929;51.178;4.138;2023-05-02T01:26:35;12.80;88.10
76172;DHT22;64929;51.178;4.138;2023-05-02T01:29:07;12.80;88.10
76172;DHT22;64929;51.178;4.138;2023-05-02T01:31:38;12.90;87.90
76172;DHT22;64929;51.178;4.138;2023-05-02T01:34:08;13.00;87.00
76172;DHT22;64929;51.178;4.138;2023-05-02T01:36:35;13.00;87.10
76172;DHT22;64929;51.178;4.138;2023-05-02T01:39:03;13.20;86.00
76172;DHT22;64929;51.178;4.138;2023-05-02T01:41:31;13.10;86.20
76172;DHT22;64929;51.178;4.138;2023-05-02T01:44:01;13.10;86.60
76172;DHT22;64929;51.178;4.138;2023-05-02T01:46:30;13.10;86.30
76172;DHT22;64929;51.178;4.138;2023-05-02T01:48:57;13.10;86.10
76172;DHT22;64929;51.178;4.138;2023-05-02T01:51:39;13.20;85.80
76172;DHT22;64929;51.178;4.138;2023-05-02T01:54:08;13.20;85.80
76172;DHT22;64929;51.178;4.138;2023-05-02T01:56:36;13.10;86.40
76172;DHT22;64929;51.178;4.138;2023-05-02T01:59:05;13.20;85.80
76172;DHT22;64929;51.178;4.138;2023-05-02T02:01:35;13.20;85.40
76172;DHT22;64929;51.178;4.138;2023-05-02T02:04:03;13.20;85.50
76172;DHT22;64929;51.178;4.138;2023-05-02T02:06:29;13.00;85.80
76172;DHT22;64929;51.178;4.138;2023-05-02T02:08:55;13.00;85.90
76172;DHT22;64929;51.178;4.138;2023-05-02T02:12:28;13.00;85.90
76172;DHT22;64929;51.178;4.138;2023-05-02T02:14:25;12.90;85.60
76172;DHT22;64929;51.178;4.138;2023-05-02T02:16:54;12.60;86.60
76172;DHT22;64929;51.178;4.138;2023-05-02T02:19:21;12.60;86.90
76172;DHT22;64929;51.178;4.138;2023-05-02T02:21:48;12.50;87.20
76172;DHT22;64929;51.178;4.138;2023-05-02T02:24:17;12.50;87.10
76172;DHT22;64929;51.178;4.138;2023-05-02T02:26:45;12.60;86.60
76172;DHT22;64929;51.178;4.138;2023-05-02T02:29:10;12.70;86.00
76172;DHT22;64929;51.178;4.138;2023-05-02T02:31:36;12.50;86.40
76172;DHT22;64929;51.178;4.138;2023-05-02T02:34:04;12.50;86.50
76172;DHT22;64929;51.178;4.138;2023-05-02T02:36:35;12.50;86.80
76172;DHT22;64929;51.178;4.138;2023-05-02T02:41:45;12.60;86.60
76172;DHT22;64929;51.178;4.138;2023-05-02T02:44:32;12.70;85.80
76172;DHT22;64929;51.178;4.138;2023-05-02T02:47:28;12.60;85.60
76172;DHT22;64929;51.178;4.138;2023-05-02T02:50:10;12.30;86.60
76172;DHT22;64929;51.178;4.138;2023-05-02T02:52:49;12.30;86.60
76172;DHT22;64929;51.178;4.138;2023-05-02T02:57:59;12.20;86.80
76172;DHT22;64929;51.178;4.138;2023-05-02T03:00:26;12.00;87.80
76172;DHT22;64929;51.178;4.138;2023-05-02T03:02:53;12.00;88.60
76172;DHT22;64929;51.178;4.138;2023-05-02T03:05:21;12.20;87.70
76172;DHT22;64929;51.178;4.138;2023-05-02T03:07:47;12.20;87.60
76172;DHT22;64929;51.178;4.138;2023-05-02T03:10:12;12.20;87.70
76172;DHT22;64929;51.178;4.138;2023-05-02T03:12:38;12.30;87.50
76172;DHT22;64929;51.178;4.138;2023-05-02T03:15:22;12.30;87.10
76172;DHT22;64929;51.178;4.138;2023-05-02T03:17:52;12.30;87.30
76172;DHT22;64929;51.178;4.138;2023-05-02T03:20:17;12.10;88.10
76172;DHT22;64929;51.178;4.138;2023-05-02T03:22:43;12.00;88.50
76172;DHT22;64929;51.178;4.138;2023-05-02T03:25:09;12.20;88.00
76172;DHT22;64929;51.178;4.138;2023-05-02T03:27:34;12.10;87.80
76172;DHT22;64929;51.178;4.138;2023-05-02T03:30:00;12.00;88.40
76172;DHT22;64929;51.178;4.138;2023-05-02T03:32:26;12.00;87.60
76172;DHT22;64929;51.178;4.138;2023-05-02T03:34:51;12.20;87.70
76172;DHT22;64929;51.178;4.138;2023-05-02T03:37:23;12.20;86.80
76172;DHT22;64929;51.178;4.138;2023-05-02T03:39:48;12.10;87.50
76172;DHT22;64929;51.178;4.138;2023-05-02T03:42:14;12.10;88.10
76172;DHT22;64929;51.178;4.138;2023-05-02T03:44:40;12.10;87.90
76172;DHT22;64929;51.178;4.138;2023-05-02T03:47:05;12.00;88.20
76172;DHT22;64929;51.178;4.138;2023-05-02T03:49:33;12.20;87.20
76172;DHT22;64929;51.178;4.138;2023-05-02T03:51:59;12.10;88.00
76172;DHT22;64929;51.178;4.138;2023-05-02T03:54:25;12.30;86.90
76172;DHT22;64929;51.178;4.138;2023-05-02T03:56:53;12.20;87.70
76172;DHT22;64929;51.178;4.138;2023-05-02T03:59:19;12.00;88.50
76172;DHT22;64929;51.178;4.138;2023-05-02T04:01:47;12.00;89.20
76172;DHT22;64929;51.178;4.138;2023-05-02T04:04:13;12.10;88.80
76172;DHT22;64929;51.178;4.138;2023-05-02T04:06:39;12.10;88.70
76172;DHT22;64929;51.178;4.138;2023-05-02T04:09:05;12.00;88.80
76172;DHT22;64929;51.178;4.138;2023-05-02T04:11:30;12.00;89.20
76172;DHT22;64929;51.178;4.138;2023-05-02T04:13:56;12.20;88.50
76172;DHT22;64929;51.178;4.138;2023-05-02T04:16:22;12.40;87.10
76172;DHT22;64929;51.178;4.138;2023-05-02T04:18:47;12.60;86.60
76172;DHT22;64929;51.178;4.138;2023-05-02T04:21:13;12.50;86.70
76172;DHT22;64929;51.178;4.138;2023-05-02T04:23:39;12.70;86.20
76172;DHT22;64929;51.178;4.138;2023-05-02T04:26:04;12.70;86.20
76172;DHT22;64929;51.178;4.138;2023-05-02T04:28:31;12.60;86.80
76172;DHT22;64929;51.178;4.138;2023-05-02T04:30:56;12.60;87.00
76172;DHT22;64929;51.178;4.138;2023-05-02T04:33:22;12.60;87.00
76172;DHT22;64929;51.178;4.138;2023-05-02T04:35:49;12.50;87.20
76172;DHT22;64929;51.178;4.138;2023-05-02T04:38:14;12.70;86.80
76172;DHT22;64929;51.178;4.138;2023-05-02T04:40:40;12.60;86.90
76172;DHT22;64929;51.178;4.138;2023-05-02T04:43:06;12.50;87.40
76172;DHT22;64929;51.178;4.138;2023-05-02T04:45:34;12.30;88.00
76172;DHT22;64929;51.178;4.138;2023-05-02T04:48:00;12.40;87.70
76172;DHT22;64929;51.178;4.138;2023-05-02T04:50:26;12.40;87.00
76172;DHT22;64929;51.178;4.138;2023-05-02T04:52:52;12.40;86.70
76172;DHT22;64929;51.178;4.138;2023-05-02T04:55:18;12.40;86.30
76172;DHT22;64929;51.178;4.138;2023-05-02T04:57:44;12.30;86.50
76172;DHT22;64929;51.178;4.138;2023-05-02T05:00:10;12.40;86.10
76172;DHT22;64929;51.178;4.138;2023-05-02T05:02:36;12.50;85.70
76172;DHT22;64929;51.178;4.138;2023-05-02T05:05:04;12.50;84.90
76172;DHT22;64929;51.178;4.138;2023-05-02T05:07:30;12.50;85.00
76172;DHT22;64929;51.178;4.138;2023-05-02T05:09:55;12.40;84.80
76172;DHT22;64929;51.178;4.138;2023-05-02T05:12:21;12.50;85.10
76172;DHT22;64929;51.178;4.138;2023-05-02T05:14:47;12.60;84.70
76172;DHT22;64929;51.178;4.138;2023-05-02T05:17:14;12.30;84.30
76172;DHT22;64929;51.178;4.138;2023-05-02T05:19:40;12.40;84.10
76172;DHT22;64929;51.178;4.138;2023-05-02T05:22:06;12.50;83.60
76172;DHT22;64929;51.178;4.138;2023-05-02T05:24:32;12.60;82.90
76172;DHT22;64929;51.178;4.138;2023-05-02T05:26:58;12.60;82.90
76172;DHT22;64929;51.178;4.138;2023-05-02T05:29:24;12.50;82.90
76172;DHT22;64929;51.178;4.138;2023-05-02T05:31:50;12.50;83.00
76172;DHT22;64929;51.178;4.138;2023-05-02T05:34:15;12.50;82.50
76172;DHT22;64929;51.178;4.138;2023-05-02T05:36:41;12.60;80.50
76172;DHT22;64929;51.178;4.138;2023-05-02T05:39:07;12.50;79.60
76172;DHT22;64929;51.178;4.138;2023-05-02T05:41:33;12.50;80.00
76172;DHT22;64929;51.178;4.138;2023-05-02T05:43:59;12.50;80.00
76172;DHT22;64929;51.178;4.138;2023-05-02T05:46:25;12.50;80.40
76172;DHT22;64929;51.178;4.138;2023-05-02T05:48:51;12.50;79.80
76172;DHT22;64929;51.178;4.138;2023-05-02T05:51:16;12.60;79.20
76172;DHT22;64929;51.178;4.138;2023-05-02T05:53:42;12.60;79.90
76172;DHT22;64929;51.178;4.138;2023-05-02T05:56:11;12.60;79.70
76172;DHT22;64929;51.178;4.138;2023-05-02T05:58:45;12.70;78.70
76172;DHT22;64929;51.178;4.138;2023-05-02T06:01:10;12.80;78.30
76172;DHT22;64929;51.178;4.138;2023-05-02T06:03:37;12.80;78.50
76172;DHT22;64929;51.178;4.138;2023-05-02T06:06:03;12.80;78.10
76172;DHT22;64929;51.178;4.138;2023-05-02T06:08:29;12.80;77.30
76172;DHT22;64929;51.178;4.138;2023-05-02T06:10:54;12.80;76.30
76172;DHT22;64929;51.178;4.138;2023-05-02T06:13:20;13.00;75.70
76172;DHT22;64929;51.178;4.138;2023-05-02T06:15:46;12.70;75.50
76172;DHT22;64929;51.178;4.138;2023-05-02T06:18:12;12.60;76.20
76172;DHT22;64929;51.178;4.138;2023-05-02T06:20:38;12.60;75.60
76172;DHT22;64929;51.178;4.138;2023-05-02T06:23:04;12.70;75.80
76172;DHT22;64929;51.178;4.138;2023-05-02T06:25:29;12.70;75.50
76172;DHT22;64929;51.178;4.138;2023-05-02T06:27:57;12.80;74.70
76172;DHT22;64929;51.178;4.138;2023-05-02T06:30:22;12.80;73.80
76172;DHT22;64929;51.178;4.138;2023-05-02T06:32:48;12.90;74.00
76172;DHT22;64929;51.178;4.138;2023-05-02T06:35:14;13.00;74.00
76172;DHT22;64929;51.178;4.138;2023-05-02T06:37:40;13.10;73.90
76172;DHT22;64929;51.178;4.138;2023-05-02T06:40:06;13.20;73.10
76172;DHT22;64929;51.178;4.138;2023-05-02T06:42:32;13.30;71.30
76172;DHT22;64929;51.178;4.138;2023-05-02T06:44:58;13.30;72.30
76172;DHT22;64929;51.178;4.138;2023-05-02T06:47:24;13.40;72.60
76172;DHT22;64929;51.178;4.138;2023-05-02T06:49:50;13.50;72.20
76172;DHT22;64929;51.178;4.138;2023-05-02T06:52:17;13.40;72.00
76172;DHT22;64929;51.178;4.138;2023-05-02T06:54:42;13.40;72.00
76172;DHT22;64929;51.178;4.138;2023-05-02T06:57:08;13.30;72.70
76172;DHT22;64929;51.178;4.138;2023-05-02T06:59:35;13.40;72.00
76172;DHT22;64929;51.178;4.138;2023-05-02T07:02:01;13.40;72.60
76172;DHT22;64929;51.178;4.138;2023-05-02T07:04:26;13.50;73.20
76172;DHT22;64929;51.178;4.138;2023-05-02T07:06:52;13.40;73.10
76172;DHT22;64929;51.178;4.138;2023-05-02T07:09:18;13.30;73.20
76172;DHT22;64929;51.178;4.138;2023-05-02T07:11:43;13.50;73.00
76172;DHT22;64929;51.178;4.138;2023-05-02T07:14:09;13.60;71.50
76172;DHT22;64929;51.178;4.138;2023-05-02T07:16:35;13.50;70.90
76172;DHT22;64929;51.178;4.138;2023-05-02T07:19:00;13.50;71.30
76172;DHT22;64929;51.178;4.138;2023-05-02T07:21:29;13.60;71.00
76172;DHT22;64929;51.178;4.138;2023-05-02T07:23:54;13.80;70.50
76172;DHT22;64929;51.178;4.138;2023-05-02T07:26:22;13.80;70.00
76172;DHT22;64929;51.178;4.138;2023-05-02T07:28:48;13.70;71.10
76172;DHT22;64929;51.178;4.138;2023-05-02T07:31:13;13.60;70.20
76172;DHT22;64929;51.178;4.138;2023-05-02T07:33:39;13.60;69.70
76172;DHT22;64929;51.178;4.138;2023-05-02T07:36:05;13.70;69.60
76172;DHT22;64929;51.178;4.138;2023-05-02T07:38:30;13.80;69.10
76172;DHT22;64929;51.178;4.138;2023-05-02T07:40:59;13.80;69.40
76172;DHT22;64929;51.178;4.138;2023-05-02T07:43:25;13.90;67.90
76172;DHT22;64929;51.178;4.138;2023-05-02T07:45:51;13.80;69.60
76172;DHT22;64929;51.178;4.138;2023-05-02T07:48:17;14.00;68.20
76172;DHT22;64929;51.178;4.138;2023-05-02T07:50:42;14.10;68.60
76172;DHT22;64929;51.178;4.138;2023-05-02T07:53:08;14.20;68.20
76172;DHT22;64929;51.178;4.138;2023-05-02T07:55:36;14.00;67.50
76172;DHT22;64929;51.178;4.138;2023-05-02T07:58:02;14.10;67.90
76172;DHT22;64929;51.178;4.138;2023-05-02T08:00:28;14.20;66.60
76172;DHT22;64929;51.178;4.138;2023-05-02T08:02:55;14.20;67.00
76172;DHT22;64929;51.178;4.138;2023-05-02T08:05:21;13.80;67.50
76172;DHT22;64929;51.178;4.138;2023-05-02T08:07:47;13.70;68.30
76172;DHT22;64929;51.178;4.138;2023-05-02T08:10:12;13.70;66.80
76172;DHT22;64929;51.178;4.138;2023-05-02T08:12:39;13.80;67.00
76172;DHT22;64929;51.178;4.138;2023-05-02T08:15:07;14.00;66.50
76172;DHT22;64929;51.178;4.138;2023-05-02T08:17:32;14.20;65.90
76172;DHT22;64929;51.178;4.138;2023-05-02T08:19:58;14.30;64.20
76172;DHT22;64929;51.178;4.138;2023-05-02T08:22:24;14.40;64.30
76172;DHT22;64929;51.178;4.138;2023-05-02T08:24:49;14.50;63.90
76172;DHT22;64929;51.178;4.138;2023-05-02T08:27:15;14.50;64.70
76172;DHT22;64929;51.178;4.138;2023-05-02T08:29:41;14.20;65.80
76172;DHT22;64929;51.178;4.138;2023-05-02T08:32:06;14.10;66.00
76172;DHT22;64929;51.178;4.138;2023-05-02T08:34:32;14.10;67.00
76172;DHT22;64929;51.178;4.138;2023-05-02T08:36:58;14.30;66.40
76172;DHT22;64929;51.178;4.138;2023-05-02T08:39:24;14.30;65.10
76172;DHT22;64929;51.178;4.138;2023-05-02T08:41:49;14.40;64.60
76172;DHT22;64929;51.178;4.138;2023-05-02T08:44:16;14.60;62.30
76172;DHT22;64929;51.178;4.138;2023-05-02T08:46:42;14.70;63.10
76172;DHT22;64929;51.178;4.138;2023-05-02T08:49:10;14.70;62.90
76172;DHT22;64929;51.178;4.138;2023-05-02T08:51:36;14.60;62.20
76172;DHT22;64929;51.178;4.138;2023-05-02T08:54:03;14.60;61.60
76172;DHT22;64929;51.178;4.138;2023-05-02T08:56:32;14.70;62.70
76172;DHT22;64929;51.178;4.138;2023-05-02T08:58:57;14.70;62.60
76172;DHT22;64929;51.178;4.138;2023-05-02T09:01:23;14.60;62.60
76172;DHT22;64929;51.178;4.138;2023-05-02T09:03:51;14.30;63.00
76172;DHT22;64929;51.178;4.138;2023-05-02T09:06:20;14.30;62.80
76172;DHT22;64929;51.178;4.138;2023-05-02T09:08:49;14.30;64.00
76172;DHT22;64929;51.178;4.138;2023-05-02T09:11:15;14.60;62.60
76172;DHT22;64929;51.178;4.138;2023-05-02T09:13:42;14.40;62.70
76172;DHT22;64929;51.178;4.138;2023-05-02T09:16:24;14.60;61.20
76172;DHT22;64929;51.178;4.138;2023-05-02T09:18:57;14.70;62.10
76172;DHT22;64929;51.178;4.138;2023-05-02T09:21:45;14.50;61.90
76172;DHT22;64929;51.178;4.138;2023-05-02T09:24:15;14.40;62.50
76172;DHT22;64929;51.178;4.138;2023-05-02T09:26:43;14.40;62.50
76172;DHT22;64929;51.178;4.138;2023-05-02T09:29:09;14.30;63.00
76172;DHT22;64929;51.178;4.138;2023-05-02T09:31:35;14.40;62.20
76172;DHT22;64929;51.178;4.138;2023-05-02T09:34:16;14.50;60.60
76172;DHT22;64929;51.178;4.138;2023-05-02T09:36:46;14.60;61.90
76172;DHT22;64929;51.178;4.138;2023-05-02T09:39:16;15.00;60.40
76172;DHT22;64929;51.178;4.138;2023-05-02T09:41:44;15.10;60.60
76172;DHT22;64929;51.178;4.138;2023-05-02T09:44:11;15.20;60.30
76172;DHT22;64929;51.178;4.138;2023-05-02T09:46:50;15.10;62.30
76172;DHT22;64929;51.178;4.138;2023-05-02T09:49:16;15.20;62.00
76172;DHT22;64929;51.178;4.138;2023-05-02T09:51:46;15.20;61.20
76172;DHT22;64929;51.178;4.138;2023-05-02T09:54:12;15.20;61.90
76172;DHT22;64929;51.178;4.138;2023-05-02T09:56:51;15.20;61.60
76172;DHT22;64929;51.178;4.138;2023-05-02T09:59:23;15.40;62.50
76172;DHT22;64929;51.178;4.138;2023-05-02T10:01:54;15.40;61.10
76172;DHT22;64929;51.178;4.138;2023-05-02T10:04:21;15.50;60.30
76172;DHT22;64929;51.178;4.138;2023-05-02T10:06:49;15.60;58.30
76172;DHT22;64929;51.178;4.138;2023-05-02T10:09:15;15.40;59.40
76172;DHT22;64929;51.178;4.138;2023-05-02T10:11:43;15.30;60.70
76172;DHT22;64929;51.178;4.138;2023-05-02T10:14:10;15.00;60.30
76172;DHT22;64929;51.178;4.138;2023-05-02T10:16:46;15.00;59.80
76172;DHT22;64929;51.178;4.138;2023-05-02T10:19:23;15.00;60.70
76172;DHT22;64929;51.178;4.138;2023-05-02T10:21:49;15.00;60.40
76172;DHT22;64929;51.178;4.138;2023-05-02T10:24:16;15.10;60.00
76172;DHT22;64929;51.178;4.138;2023-05-02T10:26:42;15.20;58.90
76172;DHT22;64929;51.178;4.138;2023-05-02T10:29:09;15.10;60.10
76172;DHT22;64929;51.178;4.138;2023-05-02T10:31:36;15.10;60.10
76172;DHT22;64929;51.178;4.138;2023-05-02T10:34:04;15.20;59.30
76172;DHT22;64929;51.178;4.138;2023-05-02T10:36:32;15.20;58.70
76172;DHT22;64929;51.178;4.138;2023-05-02T10:38:58;15.30;58.30
76172;DHT22;64929;51.178;4.138;2023-05-02T10:41:27;15.50;57.10
76172;DHT22;64929;51.178;4.138;2023-05-02T10:43:53;15.60;56.30
76172;DHT22;64929;51.178;4.138;2023-05-02T10:46:36;15.40;58.30
76172;DHT22;64929;51.178;4.138;2023-05-02T10:49:10;15.60;58.00
76172;DHT22;64929;51.178;4.138;2023-05-02T10:51:41;15.70;56.70
76172;DHT22;64929;51.178;4.138;2023-05-02T10:54:19;15.60;56.70
76172;DHT22;64929;51.178;4.138;2023-05-02T10:57:05;15.60;58.10
76172;DHT22;64929;51.178;4.138;2023-05-02T11:01:58;15.60;57.00
76172;DHT22;64929;51.178;4.138;2023-05-02T11:04:25;15.70;57.10
76172;DHT22;64929;51.178;4.138;2023-05-02T11:07:15;15.60;56.50
76172;DHT22;64929;51.178;4.138;2023-05-02T11:09:41;15.40;57.10
76172;DHT22;64929;51.178;4.138;2023-05-02T11:12:07;15.60;56.60
76172;DHT22;64929;51.178;4.138;2023-05-02T11:17:08;15.60;56.40
76172;DHT22;64929;51.178;4.138;2023-05-02T11:22:32;16.10;55.90
76172;DHT22;64929;51.178;4.138;2023-05-02T11:24:58;16.00;54.50
76172;DHT22;64929;51.178;4.138;2023-05-02T11:30:03;15.70;56.40
76172;DHT22;64929;51.178;4.138;2023-05-02T11:35:15;15.70;55.20
76172;DHT22;64929;51.178;4.138;2023-05-02T11:37:42;15.90;56.50
76172;DHT22;64929;51.178;4.138;2023-05-02T11:40:11;15.80;55.70
76172;DHT22;64929;51.178;4.138;2023-05-02T11:42:37;15.70;56.20
76172;DHT22;64929;51.178;4.138;2023-05-02T11:45:03;15.80;56.80
76172;DHT22;64929;51.178;4.138;2023-05-02T11:47:31;15.90;55.40
76172;DHT22;64929;51.178;4.138;2023-05-02T11:49:57;16.00;56.30
76172;DHT22;64929;51.178;4.138;2023-05-02T11:52:26;15.90;54.40
76172;DHT22;64929;51.178;4.138;2023-05-02T11:54:55;16.10;53.70
76172;DHT22;64929;51.178;4.138;2023-05-02T11:57:22;16.10;54.70
76172;DHT22;64929;51.178;4.138;2023-05-02T11:59:52;16.10;52.40
76172;DHT22;64929;51.178;4.138;2023-05-02T12:05:27;16.20;51.80
76172;DHT22;64929;51.178;4.138;2023-05-02T12:07:55;16.20;51.40
76172;DHT22;64929;51.178;4.138;2023-05-02T12:10:22;16.20;52.50
76172;DHT22;64929;51.178;4.138;2023-05-02T12:12:47;16.40;53.30
76172;DHT22;64929;51.178;4.138;2023-05-02T12:15:14;16.40;53.40
76172;DHT22;64929;51.178;4.138;2023-05-02T12:17:46;16.40;51.30
76172;DHT22;64929;51.178;4.138;2023-05-02T12:20:13;16.30;52.30
76172;DHT22;64929;51.178;4.138;2023-05-02T12:22:40;16.40;51.30
76172;DHT22;64929;51.178;4.138;2023-05-02T12:25:06;16.20;52.80
76172;DHT22;64929;51.178;4.138;2023-05-02T12:27:32;16.20;51.80
76172;DHT22;64929;51.178;4.138;2023-05-02T12:29:59;16.40;52.40
76172;DHT22;64929;51.178;4.138;2023-05-02T12:32:32;16.50;52.80
76172;DHT22;64929;51.178;4.138;2023-05-02T12:34:59;16.60;50.30
76172;DHT22;64929;51.178;4.138;2023-05-02T12:37:26;16.50;51.70
76172;DHT22;64929;51.178;4.138;2023-05-02T12:39:52;16.50;52.30
76172;DHT22;64929;51.178;4.138;2023-05-02T12:42:20;16.50;51.80
76172;DHT22;64929;51.178;4.138;2023-05-02T12:44:47;16.60;51.00
76172;DHT22;64929;51.178;4.138;2023-05-02T12:47:15;16.50;51.30
76172;DHT22;64929;51.178;4.138;2023-05-02T12:49:57;16.40;51.30
76172;DHT22;64929;51.178;4.138;2023-05-02T12:52:48;16.50;52.00
76172;DHT22;64929;51.178;4.138;2023-05-02T12:55:22;16.40;51.10
76172;DHT22;64929;51.178;4.138;2023-05-02T12:57:50;16.50;50.00
76172;DHT22;64929;51.178;4.138;2023-05-02T13:00:16;16.60;51.20
76172;DHT22;64929;51.178;4.138;2023-05-02T13:02:42;16.70;49.70
76172;DHT22;64929;51.178;4.138;2023-05-02T13:05:15;16.70;50.30
76172;DHT22;64929;51.178;4.138;2023-05-02T13:07:41;16.70;50.40
76172;DHT22;64929;51.178;4.138;2023-05-02T13:10:07;16.70;48.60
76172;DHT22;64929;51.178;4.138;2023-05-02T13:12:34;16.70;47.30
76172;DHT22;64929;51.178;4.138;2023-05-02T13:15:06;16.80;48.50
76172;DHT22;64929;51.178;4.138;2023-05-02T13:17:32;16.60;49.00
76172;DHT22;64929;51.178;4.138;2023-05-02T13:19:58;16.70;47.80
76172;DHT22;64929;51.178;4.138;2023-05-02T13:22:24;16.70;49.50
76172;DHT22;64929;51.178;4.138;2023-05-02T13:24:50;16.80;49.20
76172;DHT22;64929;51.178;4.138;2023-05-02T13:27:16;16.90;48.20
76172;DHT22;64929;51.178;4.138;2023-05-02T13:29:45;16.80;48.60
76172;DHT22;64929;51.178;4.138;2023-05-02T13:32:11;17.00;47.00
76172;DHT22;64929;51.178;4.138;2023-05-02T13:34:37;17.00;46.70
76172;DHT22;64929;51.178;4.138;2023-05-02T13:37:03;16.90;46.50
76172;DHT22;64929;51.178;4.138;2023-05-02T13:39:28;17.30;46.40
76172;DHT22;64929;51.178;4.138;2023-05-02T13:41:54;17.80;45.10
76172;DHT22;64929;51.178;4.138;2023-05-02T13:44:20;18.60;43.00
76172;DHT22;64929;51.178;4.138;2023-05-02T13:46:45;19.00;43.90
76172;DHT22;64929;51.178;4.138;2023-05-02T13:49:12;19.50;41.40
76172;DHT22;64929;51.178;4.138;2023-05-02T13:51:37;20.00;40.80
76172;DHT22;64929;51.178;4.138;2023-05-02T13:54:03;21.40;40.50
76172;DHT22;64929;51.178;4.138;2023-05-02T13:56:29;23.00;35.90
76172;DHT22;64929;51.178;4.138;2023-05-02T13:58:55;24.30;34.10
76172;DHT22;64929;51.178;4.138;2023-05-02T14:01:20;24.80;32.10
76172;DHT22;64929;51.178;4.138;2023-05-02T14:03:46;25.30;30.90
76172;DHT22;64929;51.178;4.138;2023-05-02T14:06:12;25.50;31.40
76172;DHT22;64929;51.178;4.138;2023-05-02T14:08:38;25.30;30.40
76172;DHT22;64929;51.178;4.138;2023-05-02T14:11:03;24.90;30.80
76172;DHT22;64929;51.178;4.138;2023-05-02T14:13:29;25.00;30.30
76172;DHT22;64929;51.178;4.138;2023-05-02T14:15:55;25.20;30.50
76172;DHT22;64929;51.178;4.138;2023-05-02T14:18:21;25.60;29.90
76172;DHT22;64929;51.178;4.138;2023-05-02T14:20:47;26.90;29.40
76172;DHT22;64929;51.178;4.138;2023-05-02T14:23:13;27.80;28.50
76172;DHT22;64929;51.178;4.138;2023-05-02T14:25:38;28.10;28.40
76172;DHT22;64929;51.178;4.138;2023-05-02T14:28:04;29.70;27.50
76172;DHT22;64929;51.178;4.138;2023-05-02T14:30:30;30.20;27.20
76172;DHT22;64929;51.178;4.138;2023-05-02T14:32:56;30.60;27.50
76172;DHT22;64929;51.178;4.138;2023-05-02T14:35:22;30.10;26.60
76172;DHT22;64929;51.178;4.138;2023-05-02T14:37:48;31.00;26.40
76172;DHT22;64929;51.178;4.138;2023-05-02T14:40:13;31.80;26.20
76172;DHT22;64929;51.178;4.138;2023-05-02T14:42:40;32.20;25.70
76172;DHT22;64929;51.178;4.138;2023-05-02T14:45:06;31.80;26.20
76172;DHT22;64929;51.178;4.138;2023-05-02T14:47:33;32.20;25.50
76172;DHT22;64929;51.178;4.138;2023-05-02T14:49:59;31.40;26.20
76172;DHT22;64929;51.178;4.138;2023-05-02T14:52:25;32.10;25.80
76172;DHT22;64929;51.178;4.138;2023-05-02T14:54:51;31.40;26.30
76172;DHT22;64929;51.178;4.138;2023-05-02T14:57:17;31.80;26.30
76172;DHT22;64929;51.178;4.138;2023-05-02T14:59:43;31.70;26.00
76172;DHT22;64929;51.178;4.138;2023-05-02T15:02:09;32.00;25.50
76172;DHT22;64929;51.178;4.138;2023-05-02T15:04:35;32.80;25.40
76172;DHT22;64929;51.178;4.138;2023-05-02T15:07:02;33.10;25.10
76172;DHT22;64929;51.178;4.138;2023-05-02T15:09:27;33.10;25.10
76172;DHT22;64929;51.178;4.138;2023-05-02T15:11:54;33.50;25.00
76172;DHT22;64929;51.178;4.138;2023-05-02T15:14:20;32.30;25.50
76172;DHT22;64929;51.178;4.138;2023-05-02T15:16:45;31.60;25.70
76172;DHT22;64929;51.178;4.138;2023-05-02T15:19:12;29.70;26.90
76172;DHT22;64929;51.178;4.138;2023-05-02T15:21:38;29.40;27.90
76172;DHT22;64929;51.178;4.138;2023-05-02T15:24:04;29.50;26.90
76172;DHT22;64929;51.178;4.138;2023-05-02T15:26:30;28.80;27.50
76172;DHT22;64929;51.178;4.138;2023-05-02T15:28:56;28.00;28.00
76172;DHT22;64929;51.178;4.138;2023-05-02T15:31:22;27.30;28.60
76172;DHT22;64929;51.178;4.138;2023-05-02T15:33:48;25.90;30.20
76172;DHT22;64929;51.178;4.138;2023-05-02T15:36:13;24.80;31.20
76172;DHT22;64929;51.178;4.138;2023-05-02T15:38:40;23.80;32.40
76172;DHT22;64929;51.178;4.138;2023-05-02T15:41:08;24.00;32.80
76172;DHT22;64929;51.178;4.138;2023-05-02T15:43:34;23.50;33.60
76172;DHT22;64929;51.178;4.138;2023-05-02T15:46:00;22.50;34.00
76172;DHT22;64929;51.178;4.138;2023-05-02T15:48:30;21.90;35.60
76172;DHT22;64929;51.178;4.138;2023-05-02T15:50:57;21.60;36.40
76172;DHT22;64929;51.178;4.138;2023-05-02T15:53:23;21.30;36.50
76172;DHT22;64929;51.178;4.138;2023-05-02T15:55:50;21.00;36.60
76172;DHT22;64929;51.178;4.138;2023-05-02T15:58:16;20.50;38.50
76172;DHT22;64929;51.178;4.138;2023-05-02T16:00:43;20.00;39.10
76172;DHT22;64929;51.178;4.138;2023-05-02T16:03:09;20.10;39.10